Time;durP1;ratioP1;P1;durP2;ratioP2;P2;SDS_P1;SDS_P2;PMS_P1;PMS_P2;Temp;Humidity;BMP_temperature;BMP_pressure;BME280_temperature;BME280_humidity;BME280_pressure;Samples;Min_cycle;Max_cycle;Signal;HPM_P1;HPM_P2
2021/04/13 00:01:14;;;;;;;29.42;16.50;;;;;;;;;;5093089;28;20192;-52
2021/04/13 00:04:19;;;;;;;35.35;17.05;;;;;;;;;;5093795;28;20209;-53
2021/04/13 00:06:49;;;;;;;29.60;16.63;;;;;;;;;;5030118;28;20181;-52
2021/04/13 00:09:21;;;;;;;35.53;20.20;;;;;;;;;;5030783;28;20187;-52
2021/04/13 00:11:49;;;;;;;30.65;18.75;;;;;;;;;;5064211;28;20249;-52
2021/04/13 00:14:35;;;;;;;33.10;19.70;;;;;;;;;;5093121;28;20629;-52
2021/04/13 00:17:04;;;;;;;28.48;16.65;;;;;;;;;;5092779;28;20208;-52
2021/04/13 00:19:43;;;;;;;32.95;19.15;;;;;;;;;;5092569;28;20193;-52
2021/04/13 00:22:09;;;;;;;28.67;18.45;;;;;;;;;;5092584;28;20176;-52
2021/04/13 00:24:35;;;;;;;31.73;18.70;;;;;;;;;;5093066;28;20245;-52
2021/04/13 00:27:01;;;;;;;36.30;19.07;;;;;;;;;;5092363;28;20396;-52
2021/04/13 00:29:30;;;;;;;34.13;18.60;;;;;;;;;;5092655;28;20424;-51
2021/04/13 00:32:01;;;;;;;30.05;18.90;;;;;;;;;;5092535;28;20193;-55
2021/04/13 00:34:30;;;;;;;28.85;17.55;;;;;;;;;;5092992;28;20174;-52
2021/04/13 00:37:11;;;;;;;29.50;18.85;;;;;;;;;;5092338;28;20165;-52
2021/04/13 00:39:37;;;;;;;33.28;18.65;;;;;;;;;;5092408;28;20197;-52
2021/04/13 00:42:05;;;;;;;26.80;16.43;;;;;;;;;;5092399;28;20545;-54
2021/04/13 00:44:34;;;;;;;29.17;18.17;;;;;;;;;;5092623;28;20407;-54
2021/04/13 00:47:05;;;;;;;32.60;18.60;;;;;;;;;;5092059;28;20602;-52
2021/04/13 00:49:33;;;;;;;42.00;20.75;;;;;;;;;;5092017;28;20256;-52
2021/04/13 00:52:04;;;;;;;28.42;16.42;;;;;;;;;;5092206;28;20204;-54
2021/04/13 00:54:35;;;;;;;28.75;17.42;;;;;;;;;;5092012;28;20220;-54
2021/04/13 00:57:16;;;;;;;31.15;17.80;;;;;;;;;;5091902;28;20565;-52
2021/04/13 00:59:43;;;;;;;29.83;16.33;;;;;;;;;;5091730;28;20212;-55
2021/04/13 01:02:11;;;;;;;32.97;17.00;;;;;;;;;;5090796;28;20226;-53
2021/04/13 01:04:48;;;;;;;29.25;17.33;;;;;;;;;;5091348;28;20153;-51
2021/04/13 01:07:19;;;;;;;31.25;17.77;;;;;;;;;;5091496;28;20226;-54
2021/04/13 01:09:49;;;;;;;26.70;16.80;;;;;;;;;;5091897;28;20611;-52
2021/04/13 01:12:27;;;;;;;29.67;16.88;;;;;;;;;;5091845;28;20513;-54
2021/04/13 01:14:53;;;;;;;32.20;17.73;;;;;;;;;;5091662;28;20169;-55
2021/04/13 01:17:21;;;;;;;27.15;18.15;;;;;;;;;;5091444;28;20196;-52
2021/04/13 01:19:51;;;;;;;23.77;16.48;;;;;;;;;;5091490;28;20252;-55
2021/04/13 01:25:15;;;;;;;29.65;16.98;;;;;;;;;;5057355;28;20214;-52
2021/04/13 01:27:46;;;;;;;27.03;18.97;;;;;;;;;;5091438;28;20625;-53
2021/04/13 01:30:13;;;;;;;31.00;18.40;;;;;;;;;;5091209;28;20455;-52
2021/04/13 01:32:39;;;;;;;30.33;17.50;;;;;;;;;;5091730;28;20215;-52
2021/04/13 01:35:09;;;;;;;30.10;17.47;;;;;;;;;;5091736;28;20567;-52
2021/04/13 01:37:50;;;;;;;30.58;17.88;;;;;;;;;;5091483;28;20697;-52
2021/04/13 01:41:03;;;;;;;32.28;18.42;;;;;;;;;;5091340;28;20204;-52
2021/04/13 01:43:11;;;;;;;31.95;17.33;;;;;;;;;;5090811;28;20201;-52
2021/04/13 01:45:38;;;;;;;29.92;17.83;;;;;;;;;;5091096;28;20169;-52
2021/04/13 01:48:06;;;;;;;31.75;19.73;;;;;;;;;;5091068;28;20231;-52
2021/04/13 01:50:35;;;;;;;32.42;18.60;;;;;;;;;;5091190;28;20283;-52
2021/04/13 01:53:21;;;;;;;31.25;18.33;;;;;;;;;;5090985;28;20173;-52
2021/04/13 01:55:58;;;;;;;25.65;16.88;;;;;;;;;;5090900;28;20169;-52
2021/04/13 01:58:26;;;;;;;31.08;17.77;;;;;;;;;;5090829;28;20200;-56
2021/04/13 02:01:04;;;;;;;26.30;16.75;;;;;;;;;;5091494;28;20640;-54
2021/04/13 02:03:36;;;;;;;33.13;19.00;;;;;;;;;;5090826;28;20196;-55
2021/04/13 02:06:05;;;;;;;36.65;15.45;;;;;;;;;;5090872;28;20634;-52
2021/04/13 02:08:37;;;;;;;30.27;17.17;;;;;;;;;;5090816;28;20223;-53
2021/04/13 02:11:09;;;;;;;28.15;17.60;;;;;;;;;;5091018;28;20230;-52
2021/04/13 02:13:42;;;;;;;24.23;15.70;;;;;;;;;;5090811;28;20165;-56
2021/04/13 02:16:08;;;;;;;32.65;17.80;;;;;;;;;;5090714;28;20169;-52
2021/04/13 02:18:35;;;;;;;30.45;16.20;;;;;;;;;;5091438;28;20189;-52
2021/04/13 02:21:04;;;;;;;29.42;17.95;;;;;;;;;;5090925;28;20172;-56
2021/04/13 02:23:32;;;;;;;26.67;17.45;;;;;;;;;;5091047;28;20885;-52
2021/04/13 02:25:59;;;;;;;24.75;15.85;;;;;;;;;;5090676;28;20165;-52
2021/04/13 02:28:26;;;;;;;27.50;16.67;;;;;;;;;;5090983;28;20199;-57
2021/04/13 02:30:52;;;;;;;31.50;16.98;;;;;;;;;;5090590;28;20272;-53
2021/04/13 02:33:18;;;;;;;25.20;16.05;;;;;;;;;;5090888;28;20198;-53
2021/04/13 02:35:44;;;;;;;25.87;17.23;;;;;;;;;;5090507;28;20256;-55
2021/04/13 02:38:18;;;;;;;39.08;18.23;;;;;;;;;;5090675;28;20819;-54
2021/04/13 02:41:05;;;;;;;27.23;15.93;;;;;;;;;;5090550;28;20202;-55
2021/04/13 02:43:43;;;;;;;23.42;15.10;;;;;;;;;;5090814;28;20404;-51
2021/04/13 02:46:29;;;;;;;26.20;16.30;;;;;;;;;;5090425;28;20455;-52
2021/04/13 02:49:03;;;;;;;29.35;16.85;;;;;;;;;;5090657;28;20675;-52
2021/04/13 02:51:32;;;;;;;30.45;17.73;;;;;;;;;;5090209;28;20246;-52
2021/04/13 02:53:58;;;;;;;30.40;17.50;;;;;;;;;;5090525;28;20162;-52
2021/04/13 02:56:24;;;;;;;27.63;17.90;;;;;;;;;;5090155;28;20215;-55
2021/04/13 02:58:56;;;;;;;25.00;17.00;;;;;;;;;;5090384;28;20201;-52
2021/04/13 03:01:23;;;;;;;25.95;16.98;;;;;;;;;;5090287;28;20957;-55
2021/04/13 03:03:49;;;;;;;32.90;18.02;;;;;;;;;;5090466;28;20200;-53
2021/04/13 03:06:16;;;;;;;28.98;18.15;;;;;;;;;;5088741;28;20223;-52
2021/04/13 03:08:42;;;;;;;28.60;17.10;;;;;;;;;;5090206;28;20205;-52
2021/04/13 03:11:08;;;;;;;27.80;17.08;;;;;;;;;;5090321;28;20663;-55
2021/04/13 03:13:35;;;;;;;30.70;17.03;;;;;;;;;;5090306;28;20175;-52
2021/04/13 03:16:02;;;;;;;26.30;16.23;;;;;;;;;;5090141;28;20483;-55
2021/04/13 03:18:48;;;;;;;32.95;19.38;;;;;;;;;;5090104;28;20190;-52
2021/04/13 03:21:21;;;;;;;33.88;18.50;;;;;;;;;;5090034;28;20177;-52
2021/04/13 03:23:48;;;;;;;28.50;17.15;;;;;;;;;;5090647;28;20166;-55
2021/04/13 03:26:16;;;;;;;32.75;17.30;;;;;;;;;;5093788;28;20237;-55
2021/04/13 03:28:53;;;;;;;34.13;19.48;;;;;;;;;;5093786;28;20782;-52
2021/04/13 03:31:20;;;;;;;27.42;17.25;;;;;;;;;;5093810;28;20217;-53
2021/04/13 03:33:46;;;;;;;29.48;17.90;;;;;;;;;;5093697;28;20193;-55
2021/04/13 03:36:16;;;;;;;30.05;19.23;;;;;;;;;;5093526;28;20672;-55
2021/04/13 03:38:42;;;;;;;32.42;17.98;;;;;;;;;;5093687;28;20196;-52
2021/04/13 03:41:13;;;;;;;21.90;16.00;;;;;;;;;;5093733;28;20166;-55
2021/04/13 03:43:39;;;;;;;28.20;16.95;;;;;;;;;;5093560;28;20231;-53
2021/04/13 03:46:05;;;;;;;30.25;16.38;;;;;;;;;;5093388;28;20162;-53
2021/04/13 03:48:33;;;;;;;47.45;18.50;;;;;;;;;;5093556;28;20624;-52
2021/04/13 03:51:04;;;;;;;26.00;16.70;;;;;;;;;;5093369;28;20201;-55
2021/04/13 03:53:31;;;;;;;28.85;17.67;;;;;;;;;;5093409;28;20176;-52
2021/04/13 03:56:02;;;;;;;30.23;17.27;;;;;;;;;;5092939;28;20162;-53
2021/04/13 03:58:31;;;;;;;26.55;16.58;;;;;;;;;;5093264;28;20670;-51
2021/04/13 04:00:57;;;;;;;33.42;18.15;;;;;;;;;;5093249;28;20165;-55
2021/04/13 04:03:23;;;;;;;23.00;14.68;;;;;;;;;;5093344;28;20248;-55
2021/04/13 04:05:57;;;;;;;28.63;16.20;;;;;;;;;;5092985;28;20209;-53
2021/04/13 04:08:29;;;;;;;27.77;16.85;;;;;;;;;;5093133;28;20934;-55
2021/04/13 04:10:55;;;;;;;34.08;17.40;;;;;;;;;;5093086;28;20236;-52
2021/04/13 04:13:23;;;;;;;27.40;15.50;;;;;;;;;;5093283;28;20645;-52
2021/04/13 04:15:53;;;;;;;25.70;16.10;;;;;;;;;;5092771;28;20400;-51
2021/04/13 04:18:18;;;;;;;26.70;16.65;;;;;;;;;;5093086;28;20190;-52
2021/04/13 04:20:45;;;;;;;26.67;17.10;;;;;;;;;;5093210;28;20176;-55
2021/04/13 04:23:16;;;;;;;27.65;16.13;;;;;;;;;;5093129;28;20962;-52
2021/04/13 04:25:45;;;;;;;20.80;13.55;;;;;;;;;;5093173;28;20170;-52
2021/04/13 04:28:22;;;;;;;25.90;16.10;;;;;;;;;;5093081;28;20161;-52
2021/04/13 04:30:48;;;;;;;28.50;15.15;;;;;;;;;;5092862;28;20193;-55
2021/04/13 04:33:34;;;;;;;25.75;14.55;;;;;;;;;;5092574;28;20161;-55
2021/04/13 04:36:01;;;;;;;24.88;14.50;;;;;;;;;;5091163;28;20222;-55
2021/04/13 04:38:28;;;;;;;23.98;14.38;;;;;;;;;;5092305;28;20189;-55
2021/04/13 04:40:56;;;;;;;28.77;16.10;;;;;;;;;;5092558;28;20158;-52
2021/04/13 04:43:41;;;;;;;24.67;14.90;;;;;;;;;;5092376;28;20560;-52
2021/04/13 04:46:07;;;;;;;24.02;15.35;;;;;;;;;;5092145;28;20165;-55
2021/04/13 04:48:34;;;;;;;25.70;14.70;;;;;;;;;;5092238;28;20718;-52
2021/04/13 04:51:08;;;;;;;24.20;15.30;;;;;;;;;;5092343;28;20280;-52
2021/04/13 04:53:35;;;;;;;22.10;12.80;;;;;;;;;;5092147;28;20169;-52
2021/04/13 04:56:02;;;;;;;25.20;14.68;;;;;;;;;;5092039;28;20185;-52
2021/04/13 04:58:28;;;;;;;21.20;14.73;;;;;;;;;;5091895;28;20565;-52
2021/04/13 05:00:55;;;;;;;25.87;14.40;;;;;;;;;;5092171;28;20165;-52
2021/04/13 05:03:22;;;;;;;25.95;15.27;;;;;;;;;;5091432;28;20407;-53
2021/04/13 05:05:48;;;;;;;24.60;12.98;;;;;;;;;;5091142;28;20175;-53
2021/04/13 05:08:15;;;;;;;21.48;15.57;;;;;;;;;;5092136;28;20283;-55
2021/04/13 05:10:41;;;;;;;22.30;15.50;;;;;;;;;;5091185;28;20193;-55
2021/04/13 05:13:07;;;;;;;20.70;14.57;;;;;;;;;;5091629;28;20184;-55
2021/04/13 05:15:33;;;;;;;27.07;15.40;;;;;;;;;;5090997;28;20410;-56
2021/04/13 05:17:59;;;;;;;21.20;13.77;;;;;;;;;;5091315;28;20395;-55
2021/04/13 05:20:25;;;;;;;24.25;14.20;;;;;;;;;;5091307;28;20400;-55
2021/04/13 05:22:51;;;;;;;30.33;14.10;;;;;;;;;;5091283;28;20172;-55
2021/04/13 05:25:18;;;;;;;26.73;13.80;;;;;;;;;;5090946;28;20421;-54
2021/04/13 05:27:43;;;;;;;23.30;13.70;;;;;;;;;;5091068;28;20248;-55
2021/04/13 05:30:10;;;;;;;19.60;12.80;;;;;;;;;;5090952;28;20328;-55
2021/04/13 05:32:37;;;;;;;21.02;13.43;;;;;;;;;;5091028;28;20403;-56
2021/04/13 05:35:03;;;;;;;18.40;13.88;;;;;;;;;;5091061;28;20195;-55
2021/04/13 05:37:30;;;;;;;19.30;13.38;;;;;;;;;;5090836;28;20197;-55
2021/04/13 05:39:57;;;;;;;19.75;13.38;;;;;;;;;;5091074;28;20190;-55
2021/04/13 05:42:25;;;;;;;21.85;13.32;;;;;;;;;;5090914;28;20166;-54
2021/04/13 05:44:53;;;;;;;21.65;13.80;;;;;;;;;;5091434;28;20165;-55
2021/04/13 05:47:19;;;;;;;21.98;15.02;;;;;;;;;;5090859;28;20170;-54
2021/04/13 05:49:44;;;;;;;21.60;14.33;;;;;;;;;;5091243;28;20215;-55
2021/04/13 05:52:10;;;;;;;20.60;14.03;;;;;;;;;;5091071;28;20547;-56
2021/04/13 05:54:36;;;;;;;26.43;14.30;;;;;;;;;;5091250;28;20403;-55
2021/04/13 05:57:03;;;;;;;29.57;14.83;;;;;;;;;;5091419;28;20441;-54
2021/04/13 05:59:32;;;;;;;21.83;14.73;;;;;;;;;;5091064;28;20448;-55
2021/04/13 06:01:58;;;;;;;20.05;14.05;;;;;;;;;;5091154;28;20262;-55
2021/04/13 06:04:24;;;;;;;21.27;13.25;;;;;;;;;;5090880;28;20256;-55
2021/04/13 06:06:50;;;;;;;22.73;14.50;;;;;;;;;;5090990;28;20222;-55
2021/04/13 06:09:16;;;;;;;21.20;12.48;;;;;;;;;;5090845;28;20422;-56
2021/04/13 06:11:43;;;;;;;18.52;11.93;;;;;;;;;;5091075;28;20198;-55
2021/04/13 06:14:10;;;;;;;24.58;13.10;;;;;;;;;;5090846;28;20209;-54
2021/04/13 06:16:38;;;;;;;21.60;13.63;;;;;;;;;;5090875;28;20563;-56
2021/04/13 06:19:05;;;;;;;16.98;12.75;;;;;;;;;;5090804;28;20649;-56
2021/04/13 06:21:31;;;;;;;24.08;13.45;;;;;;;;;;5090964;28;20255;-55
2021/04/13 06:23:57;;;;;;;24.10;15.10;;;;;;;;;;5090753;28;20263;-54
2021/04/13 06:26:23;;;;;;;20.50;12.70;;;;;;;;;;5090716;28;20715;-54
2021/04/13 06:28:49;;;;;;;18.10;12.38;;;;;;;;;;5090954;28;20199;-55
2021/04/13 06:31:15;;;;;;;17.80;12.73;;;;;;;;;;5090796;28;20206;-55
2021/04/13 06:33:42;;;;;;;24.08;15.13;;;;;;;;;;5090984;28;20400;-54
2021/04/13 06:36:08;;;;;;;23.52;13.07;;;;;;;;;;5090575;28;20191;-55
2021/04/13 06:38:36;;;;;;;25.45;13.43;;;;;;;;;;5090997;28;20192;-55
2021/04/13 06:41:06;;;;;;;18.75;13.32;;;;;;;;;;5090979;28;20176;-54
2021/04/13 06:43:47;;;;;;;22.15;13.52;;;;;;;;;;5090812;28;20169;-55
2021/04/13 06:46:13;;;;;;;27.75;12.43;;;;;;;;;;5090404;28;20233;-55
2021/04/13 06:48:45;;;;;;;20.67;13.10;;;;;;;;;;5090770;28;20187;-57
2021/04/13 06:51:14;;;;;;;22.30;13.07;;;;;;;;;;5090408;28;20451;-57
2021/04/13 06:53:56;;;;;;;21.73;14.00;;;;;;;;;;5090761;28;20212;-55
2021/04/13 06:56:25;;;;;;;17.30;12.05;;;;;;;;;;5090623;28;20498;-54
2021/04/13 06:59:00;;;;;;;24.85;13.50;;;;;;;;;;5090760;28;20205;-55
2021/04/13 07:01:29;;;;;;;25.38;11.55;;;;;;;;;;5094321;28;20167;-54
2021/04/13 07:03:55;;;;;;;20.40;11.18;;;;;;;;;;5094578;28;20178;-56
2021/04/13 07:06:25;;;;;;;21.23;11.10;;;;;;;;;;5094311;28;20251;-56
2021/04/13 07:08:56;;;;;;;20.35;11.75;;;;;;;;;;5094481;28;20415;-55
2021/04/13 07:11:26;;;;;;;15.98;12.05;;;;;;;;;;5094333;28;20536;-56
2021/04/13 07:13:51;;;;;;;22.27;11.68;;;;;;;;;;5094237;28;20561;-56
2021/04/13 07:16:35;;;;;;;14.37;11.27;;;;;;;;;;5093942;28;20211;-56
2021/04/13 07:19:14;;;;;;;19.77;10.43;;;;;;;;;;5094104;28;20410;-55
2021/04/13 07:21:44;;;;;;;18.00;10.55;;;;;;;;;;5094296;28;20161;-57
2021/04/13 07:24:13;;;;;;;12.90;9.80;;;;;;;;;;5093998;28;20646;-56
2021/04/13 07:26:42;;;;;;;16.80;10.90;;;;;;;;;;5093755;28;20768;-55
2021/04/13 07:29:12;;;;;;;17.30;9.00;;;;;;;;;;5093743;28;20467;-56
2021/04/13 07:31:48;;;;;;;15.03;9.17;;;;;;;;;;5094073;28;20953;-56
2021/04/13 07:34:14;;;;;;;16.57;9.37;;;;;;;;;;5096155;28;20779;-56
2021/04/13 07:36:43;;;;;;;14.40;8.20;;;;;;;;;;5101381;28;20417;-56
2021/04/13 07:39:09;;;;;;;9.93;7.90;;;;;;;;;;5113818;28;20715;-57
2021/04/13 07:41:43;;;;;;;10.83;8.10;;;;;;;;;;5114125;28;20402;-56
2021/04/13 07:44:14;;;;;;;12.17;8.50;;;;;;;;;;5113911;28;20409;-55
2021/04/13 07:46:48;;;;;;;18.73;8.50;;;;;;;;;;5113647;28;20402;-55
2021/04/13 07:49:17;;;;;;;12.80;8.10;;;;;;;;;;5113849;28;20418;-55
2021/04/13 07:51:46;;;;;;;14.67;7.10;;;;;;;;;;5113447;28;20449;-57
2021/04/13 07:54:18;;;;;;;9.00;6.43;;;;;;;;;;5113682;28;20401;-55
2021/04/13 07:57:03;;;;;;;13.93;7.37;;;;;;;;;;5113272;28;20404;-57
2021/04/13 07:59:39;;;;;;;16.10;6.43;;;;;;;;;;5113639;28;20451;-55
2021/04/13 08:02:04;;;;;;;9.40;6.03;;;;;;;;;;5113264;28;20407;-56
2021/04/13 08:04:31;;;;;;;13.23;6.17;;;;;;;;;;5113673;28;20403;-55
2021/04/13 08:07:16;;;;;;;9.63;6.00;;;;;;;;;;5113105;28;20426;-55
2021/04/13 08:09:48;;;;;;;7.37;6.43;;;;;;;;;;5113212;28;20420;-57
2021/04/13 08:12:19;;;;;;;11.00;6.10;;;;;;;;;;5113175;28;20506;-55
2021/04/13 08:15:05;;;;;;;15.80;7.07;;;;;;;;;;5113303;28;20801;-55
2021/04/13 08:17:35;;;;;;;18.00;6.37;;;;;;;;;;5113332;28;20877;-56
2021/04/13 08:20:03;;;;;;;11.60;5.67;;;;;;;;;;5113178;28;20430;-55
2021/04/13 08:22:47;;;;;;;7.37;4.50;;;;;;;;;;5113078;28;20398;-56
2021/04/13 08:25:28;;;;;;;12.33;6.17;;;;;;;;;;5113203;28;20409;-55
2021/04/13 08:28:00;;;;;;;8.73;4.80;;;;;;;;;;5113096;28;20405;-55
2021/04/13 08:30:41;;;;;;;10.10;5.20;;;;;;;;;;5113123;28;20522;-57
2021/04/13 08:33:11;;;;;;;7.40;5.13;;;;;;;;;;5112839;28;20516;-57
2021/04/13 08:35:37;;;;;;;8.97;5.07;;;;;;;;;;5112858;28;20448;-56
2021/04/13 08:38:17;;;;;;;12.83;4.50;;;;;;;;;;5112843;28;20399;-56
2021/04/13 08:41:03;;;;;;;6.03;3.20;;;;;;;;;;5113034;28;20471;-57
2021/04/13 08:43:48;;;;;;;5.23;3.00;;;;;;;;;;5113229;28;20397;-55
2021/04/13 08:46:22;;;;;;;6.43;2.80;;;;;;;;;;5112408;28;20461;-55
2021/04/13 08:49:03;;;;;;;11.03;3.60;;;;;;;;;;5112829;28;20417;-56
2021/04/13 08:51:43;;;;;;;8.23;2.93;;;;;;;;;;5080823;28;20457;-56
2021/04/13 08:54:21;;;;;;;12.73;3.30;;;;;;;;;;5054537;28;20803;-55
2021/04/13 08:56:58;;;;;;;5.87;3.63;;;;;;;;;;5072023;28;20432;-55
2021/04/13 08:59:38;;;;;;;9.40;3.17;;;;;;;;;;5071972;28;20443;-57
2021/04/13 09:02:28;;;;;;;8.40;3.43;;;;;;;;;;5072573;28;20884;-55
2021/04/13 09:05:06;;;;;;;9.70;3.57;;;;;;;;;;5085845;28;20821;-56
2021/04/13 09:07:47;;;;;;;5.10;3.10;;;;;;;;;;5092162;28;20734;-55
2021/04/13 09:10:33;;;;;;;10.67;3.13;;;;;;;;;;5091859;28;20423;-55
2021/04/13 09:13:08;;;;;;;5.37;2.60;;;;;;;;;;5091686;28;21037;-55
2021/04/13 09:15:36;;;;;;;6.07;2.70;;;;;;;;;;5091782;28;20427;-56
2021/04/13 09:18:14;;;;;;;3.87;2.10;;;;;;;;;;5091650;28;20486;-57
2021/04/13 09:20:45;;;;;;;5.10;2.20;;;;;;;;;;5091026;28;20415;-57
2021/04/13 09:23:18;;;;;;;3.70;1.87;;;;;;;;;;5089354;28;20399;-55
2021/04/13 09:25:54;;;;;;;5.60;3.43;;;;;;;;;;5104895;28;20421;-56
2021/04/13 09:28:22;;;;;;;4.20;1.70;;;;;;;;;;5091339;28;20483;-56
2021/04/13 09:30:50;;;;;;;5.17;2.30;;;;;;;;;;5091261;28;20454;-55
2021/04/13 09:33:19;;;;;;;7.83;1.97;;;;;;;;;;5091469;28;20395;-56
2021/04/13 09:36:02;;;;;;;6.13;1.70;;;;;;;;;;5091388;28;20395;-57
2021/04/13 09:38:47;;;;;;;7.03;2.17;;;;;;;;;;5091917;28;20418;-53
2021/04/13 09:41:25;;;;;;;8.23;2.00;;;;;;;;;;5091256;28;20394;-53
2021/04/13 09:43:51;;;;;;;5.23;2.03;;;;;;;;;;5091346;28;20402;-53
2021/04/13 09:46:35;;;;;;;10.63;2.20;;;;;;;;;;5091389;28;20374;-54
2021/04/13 09:49:01;;;;;;;6.67;2.67;;;;;;;;;;5091347;28;20476;-53
2021/04/13 09:51:30;;;;;;;7.10;2.40;;;;;;;;;;5091152;28;20449;-52
2021/04/13 09:54:05;;;;;;;5.47;2.83;;;;;;;;;;5091134;28;20490;-52
2021/04/13 09:56:53;;;;;;;3.53;2.03;;;;;;;;;;5090770;28;20415;-52
2021/04/13 09:59:37;;;;;;;12.53;5.03;;;;;;;;;;5089790;28;20476;-55
2021/04/13 10:02:06;;;;;;;6.60;2.60;;;;;;;;;;5090345;28;20470;-54
2021/04/13 10:04:35;;;;;;;4.10;2.70;;;;;;;;;;5090603;28;20403;-54
2021/04/13 10:07:20;;;;;;;6.70;2.77;;;;;;;;;;5089889;28;20494;-54
2021/04/13 10:09:46;;;;;;;6.63;3.00;;;;;;;;;;5090423;28;20446;-55
2021/04/13 10:12:12;;;;;;;10.47;1.90;;;;;;;;;;5089747;28;20795;-53
2021/04/13 10:14:38;;;;;;;6.13;1.67;;;;;;;;;;5090163;28;20407;-55
2021/04/13 10:17:34;;;;;;;4.23;1.90;;;;;;;;;;5089523;28;20398;-57
2021/04/13 10:20:20;;;;;;;4.93;2.03;;;;;;;;;;5052042;28;20482;-54
2021/04/13 10:22:52;;;;;;;3.93;2.00;;;;;;;;;;5082389;28;20422;-54
2021/04/13 10:25:22;;;;;;;4.10;1.70;;;;;;;;;;5089741;28;20445;-54
2021/04/13 10:27:51;;;;;;;4.50;2.30;;;;;;;;;;5090259;28;20423;-55
2021/04/13 10:30:17;;;;;;;7.23;1.80;;;;;;;;;;5086789;28;20438;-53
2021/04/13 10:33:02;;;;;;;4.43;2.17;;;;;;;;;;5089775;28;20392;-53
2021/04/13 10:35:31;;;;;;;2.40;1.97;;;;;;;;;;5092804;28;20404;-56
2021/04/13 10:38:00;;;;;;;4.13;2.20;;;;;;;;;;5093864;28;20377;-54
2021/04/13 10:40:29;;;;;;;2.83;1.90;;;;;;;;;;5075845;28;20392;-53
2021/04/13 10:43:11;;;;;;;6.77;2.20;;;;;;;;;;5093792;28;20403;-53
2021/04/13 10:45:48;;;;;;;3.30;2.17;;;;;;;;;;5093669;28;20922;-53
2021/04/13 10:48:30;;;;;;;7.80;2.50;;;;;;;;;;5075529;28;20411;-53
2021/04/13 10:51:19;;;;;;;4.73;2.40;;;;;;;;;;5093291;28;20455;-53
2021/04/13 10:53:54;;;;;;;4.77;2.30;;;;;;;;;;5093792;28;20370;-53
2021/04/13 10:56:39;;;;;;;4.30;2.10;;;;;;;;;;5093589;28;20365;-53
2021/04/13 10:59:17;;;;;;;3.53;1.70;;;;;;;;;;5093822;28;20982;-52
2021/04/13 11:02:02;;;;;;;2.13;1.50;;;;;;;;;;5094005;28;20759;-52
2021/04/13 11:04:46;;;;;;;4.97;1.97;;;;;;;;;;5094242;28;20369;-53
2021/04/13 11:07:15;;;;;;;5.10;1.83;;;;;;;;;;5093206;28;20908;-55
2021/04/13 11:09:53;;;;;;;4.93;1.70;;;;;;;;;;5076072;28;20449;-52
2021/04/13 11:12:43;;;;;;;4.30;1.90;;;;;;;;;;5093079;28;20463;-53
2021/04/13 11:15:24;;;;;;;4.97;1.43;;;;;;;;;;5093084;28;20970;-52
2021/04/13 11:17:55;;;;;;;4.63;1.70;;;;;;;;;;5089992;28;20400;-56
2021/04/13 11:20:25;;;;;;;4.23;1.60;;;;;;;;;;5093445;28;20941;-52
2021/04/13 11:22:58;;;;;;;1.67;1.47;;;;;;;;;;5075483;28;20469;-53
2021/04/13 11:25:36;;;;;;;5.40;1.50;;;;;;;;;;5074805;28;20435;-54
2021/04/13 11:28:02;;;;;;;4.10;1.53;;;;;;;;;;5092520;28;20403;-53
2021/04/13 11:30:31;;;;;;;3.03;1.50;;;;;;;;;;5092723;28;20422;-54
2021/04/13 11:33:17;;;;;;;5.43;2.00;;;;;;;;;;5089571;28;20918;-53
2021/04/13 11:35:45;;;;;;;4.03;2.50;;;;;;;;;;5092390;28;20453;-53
2021/04/13 11:38:29;;;;;;;2.63;1.90;;;;;;;;;;5092424;28;20934;-52
2021/04/13 11:41:07;;;;;;;4.27;2.03;;;;;;;;;;5092358;28;21223;-53
2021/04/13 11:43:37;;;;;;;5.80;2.17;;;;;;;;;;5092834;28;20802;-52
2021/04/13 11:46:06;;;;;;;2.93;1.80;;;;;;;;;;5091813;28;20458;-55
2021/04/13 11:48:35;;;;;;;2.33;1.67;;;;;;;;;;5092863;28;20424;-54
2021/04/13 11:51:08;;;;;;;2.97;1.53;;;;;;;;;;5092879;28;20826;-56
2021/04/13 11:53:39;;;;;;;2.50;1.63;;;;;;;;;;5092422;28;20947;-53
2021/04/13 11:56:24;;;;;;;4.67;1.40;;;;;;;;;;5092338;28;20854;-53
2021/04/13 11:59:08;;;;;;;2.40;1.70;;;;;;;;;;5092339;28;20504;-57
2021/04/13 12:01:36;;;;;;;4.67;1.40;;;;;;;;;;5092934;28;20409;-53
2021/04/13 12:04:12;;;;;;;4.67;1.70;;;;;;;;;;5088383;28;20419;-53
2021/04/13 12:06:47;;;;;;;1.40;1.30;;;;;;;;;;5071978;28;20682;-53
2021/04/13 12:09:32;;;;;;;5.63;1.70;;;;;;;;;;5071866;28;20514;-53
2021/04/13 12:11:58;;;;;;;2.40;1.20;;;;;;;;;;5053836;28;20431;-53
2021/04/13 12:14:37;;;;;;;5.53;1.57;;;;;;;;;;5072112;28;20720;-53
2021/04/13 12:17:05;;;;;;;2.70;1.83;;;;;;;;;;5071766;28;20396;-54
2021/04/13 12:19:31;;;;;;;2.33;1.90;;;;;;;;;;5085736;28;20423;-56
2021/04/13 12:22:01;;;;;;;2.70;1.27;;;;;;;;;;5091651;28;20754;-53
2021/04/13 12:24:41;;;;;;;8.03;1.40;;;;;;;;;;5073813;28;20403;-55
2021/04/13 12:27:41;;;;;;;2.73;1.23;;;;;;;;;;5073752;28;20417;-54
2021/04/13 12:30:22;;;;;;;3.13;1.30;;;;;;;;;;5092494;28;20423;-53
2021/04/13 12:32:48;;;;;;;4.60;1.50;;;;;;;;;;5092209;28;20395;-53
2021/04/13 12:35:34;;;;;;;3.77;1.57;;;;;;;;;;5091908;28;20374;-52
2021/04/13 12:37:59;;;;;;;2.43;1.53;;;;;;;;;;5092123;28;20374;-54
2021/04/13 12:40:28;;;;;;;2.90;2.00;;;;;;;;;;5092657;28;20439;-55
2021/04/13 12:42:57;;;;;;;6.37;1.83;;;;;;;;;;5092306;28;20400;-53
2021/04/13 12:45:24;;;;;;;5.53;1.43;;;;;;;;;;5092040;28;20438;-52
2021/04/13 12:47:53;;;;;;;7.93;1.70;;;;;;;;;;5092817;28;20395;-52
2021/04/13 12:50:33;;;;;;;6.37;1.60;;;;;;;;;;5091933;28;20414;-52
2021/04/13 12:52:59;;;;;;;3.57;1.80;;;;;;;;;;5092561;28;20743;-52
2021/04/13 12:55:26;;;;;;;3.83;1.80;;;;;;;;;;5092263;28;20403;-53
2021/04/13 12:57:52;;;;;;;6.53;1.60;;;;;;;;;;5091077;28;20399;-54
2021/04/13 13:00:18;;;;;;;3.87;1.47;;;;;;;;;;5091883;28;20441;-54
2021/04/13 13:02:48;;;;;;;2.13;1.90;;;;;;;;;;5091962;28;20444;-53
2021/04/13 13:05:19;;;;;;;1.60;1.50;;;;;;;;;;5091871;28;20374;-56
2021/04/13 13:07:51;;;;;;;4.00;1.80;;;;;;;;;;5091883;28;20473;-53
2021/04/13 13:10:17;;;;;;;3.80;1.50;;;;;;;;;;5091591;28;20394;-53
2021/04/13 13:12:43;;;;;;;3.27;1.27;;;;;;;;;;5091843;28;20382;-53
2021/04/13 13:15:11;;;;;;;4.53;1.87;;;;;;;;;;5091539;28;20401;-54
2021/04/13 13:17:44;;;;;;;3.83;1.60;;;;;;;;;;5091556;28;20403;-53
2021/04/13 13:20:27;;;;;;;1.80;1.70;;;;;;;;;;5091656;28;20423;-56
2021/04/13 13:22:53;;;;;;;3.10;1.20;;;;;;;;;;5091340;28;20482;-53
2021/04/13 13:25:22;;;;;;;2.57;1.13;;;;;;;;;;5091412;28;20413;-53
2021/04/13 13:27:48;;;;;;;3.70;1.93;;;;;;;;;;5091461;28;20378;-52
2021/04/13 13:30:15;;;;;;;1.90;1.27;;;;;;;;;;5091348;28;20885;-53
2021/04/13 13:32:41;;;;;;;3.33;2.33;;;;;;;;;;5091436;28;20885;-54
2021/04/13 13:35:09;;;;;;;1.53;1.43;;;;;;;;;;5091046;28;20423;-53
2021/04/13 13:37:35;;;;;;;3.20;1.30;;;;;;;;;;5091077;28;20827;-52
2021/04/13 13:40:02;;;;;;;2.30;1.43;;;;;;;;;;5088686;28;20427;-52
2021/04/13 13:42:29;;;;;;;3.33;1.20;;;;;;;;;;5091196;28;20414;-55
2021/04/13 13:44:56;;;;;;;4.67;1.17;;;;;;;;;;5091171;28;20403;-55
2021/04/13 13:47:25;;;;;;;2.47;1.40;;;;;;;;;;5091014;28;20477;-53
2021/04/13 13:49:53;;;;;;;1.20;0.90;;;;;;;;;;5090898;28;20472;-53
2021/04/13 13:52:37;;;;;;;2.00;1.20;;;;;;;;;;5090639;28;20487;-54
2021/04/13 13:55:09;;;;;;;2.47;1.13;;;;;;;;;;5090967;28;20399;-54
2021/04/13 13:57:36;;;;;;;1.90;1.10;;;;;;;;;;5090808;28;20366;-53
2021/04/13 14:00:04;;;;;;;1.57;1.17;;;;;;;;;;5090874;28;20418;-52
2021/04/13 14:02:34;;;;;;;3.70;1.47;;;;;;;;;;5090561;28;20382;-52
2021/04/13 14:05:15;;;;;;;2.40;1.40;;;;;;;;;;5090996;28;20435;-52
2021/04/13 14:07:42;;;;;;;3.63;1.60;;;;;;;;;;5090239;28;20747;-54
2021/04/13 14:10:12;;;;;;;3.80;1.37;;;;;;;;;;5090827;28;20423;-52
2021/04/13 14:12:42;;;;;;;3.17;1.30;;;;;;;;;;5090790;28;20407;-54
2021/04/13 14:15:20;;;;;;;5.57;1.40;;;;;;;;;;5090625;28;20387;-53
2021/04/13 14:17:59;;;;;;;1.60;1.40;;;;;;;;;;5090853;28;20846;-53
2021/04/13 14:20:25;;;;;;;5.37;1.80;;;;;;;;;;5090623;28;20842;-53
2021/04/13 14:22:52;;;;;;;1.23;1.10;;;;;;;;;;5090624;28;20387;-53
2021/04/13 14:25:26;;;;;;;2.10;1.20;;;;;;;;;;5090347;28;20369;-53
2021/04/13 14:28:10;;;;;;;3.80;1.37;;;;;;;;;;5091078;28;20370;-53
2021/04/13 14:30:36;;;;;;;2.00;1.20;;;;;;;;;;5090422;28;20453;-53
2021/04/13 14:33:02;;;;;;;1.73;1.40;;;;;;;;;;5090667;28;20374;-53
2021/04/13 14:35:28;;;;;;;1.47;1.10;;;;;;;;;;5090063;28;20374;-53
2021/04/13 14:37:54;;;;;;;1.50;1.20;;;;;;;;;;5090438;28;20501;-53
2021/04/13 14:40:27;;;;;;;3.93;1.13;;;;;;;;;;5090300;28;20426;-55
2021/04/13 14:42:54;;;;;;;2.80;1.60;;;;;;;;;;5090850;28;20745;-53
2021/04/13 14:45:21;;;;;;;3.73;1.40;;;;;;;;;;5089230;28;20871;-54
2021/04/13 14:47:51;;;;;;;3.90;1.83;;;;;;;;;;5089933;28;20415;-52
2021/04/13 14:50:22;;;;;;;1.53;1.30;;;;;;;;;;5090073;28;20426;-52
2021/04/13 14:52:49;;;;;;;5.03;1.77;;;;;;;;;;5090347;28;20398;-52
2021/04/13 14:55:17;;;;;;;1.93;1.50;;;;;;;;;;5090335;28;20394;-52
2021/04/13 14:57:43;;;;;;;2.00;1.80;;;;;;;;;;5090056;28;20404;-51